Time;durP1;ratioP1;P1;durP2;ratioP2;P2;SDS_P1;SDS_P2;PMS_P1;PMS_P2;Temp;Humidity;BMP_temperature;BMP_pressure;BME280_temperature;BME280_humidity;BME280_pressure;Samples;Min_cycle;Max_cycle;Signal;HPM_P1;HPM_P2
2022/05/10 00:01:43;;;;;;;;;12.50;11.75;;;;;14.53;56.64;100351.47;5057660;28;8846;-63
2022/05/10 00:04:11;;;;;;;;;21.25;19.50;;;;;14.52;56.81;100348.91;5057324;28;8838;-63
2022/05/10 00:06:38;;;;;;;;;15.25;13.50;;;;;14.52;57.41;100339.06;5057834;28;8842;-63
2022/05/10 00:09:06;;;;;;;;;14.00;12.50;;;;;14.53;57.01;100339.88;5057572;28;9496;-63
2022/05/10 00:11:34;;;;;;;;;15.00;13.50;;;;;14.50;56.87;100340.16;5058130;28;8835;-63
2022/05/10 00:14:02;;;;;;;;;23.00;22.50;;;;;14.47;57.23;100341.28;5058307;28;8842;-63
2022/05/10 00:16:29;;;;;;;;;28.00;25.50;;;;;14.45;57.17;100332.53;5058918;28;8884;-63
2022/05/10 00:18:57;;;;;;;;;20.00;18.00;;;;;14.44;57.37;100332.66;5042797;28;8959;-63
2022/05/10 00:21:25;;;;;;;;;23.00;20.00;;;;;14.44;57.29;100330.84;5036811;28;8978;-63
2022/05/10 00:23:53;;;;;;;;;21.00;20.00;;;;;14.45;56.85;100321.81;5036370;28;8840;-64
2022/05/10 00:26:20;;;;;;;;;21.75;19.50;;;;;14.44;57.05;100325.50;5037420;28;8844;-63
2022/05/10 00:28:48;;;;;;;;;11.50;10.50;;;;;14.40;57.05;100323.19;5044929;28;8854;-63
2022/05/10 00:31:16;;;;;;;;;16.50;14.00;;;;;14.36;57.35;100319.09;5057365;28;8826;-63
2022/05/10 00:33:44;;;;;;;;;15.50;15.00;;;;;14.31;57.31;100311.47;5056441;28;8830;-63
2022/05/10 00:36:11;;;;;;;;;15.50;15.50;;;;;14.27;57.73;100312.72;5057815;28;8849;-63
2022/05/10 00:38:39;;;;;;;;;14.00;12.00;;;;;14.27;57.56;100319.94;5056503;28;8830;-68
2022/05/10 00:41:07;;;;;;;;;14.50;12.00;;;;;14.28;57.42;100314.41;5058219;28;8896;-68
2022/05/10 00:43:35;;;;;;;;;11.50;10.00;;;;;14.29;57.54;100307.25;5057876;28;8891;-62
2022/05/10 00:46:03;;;;;;;;;11.25;11.00;;;;;14.30;57.73;100308.94;5057692;28;8957;-63
2022/05/10 00:48:31;;;;;;;;;10.00;9.75;;;;;14.27;57.30;100309.22;5057330;28;8862;-63
2022/05/10 00:50:59;;;;;;;;;14.50;13.50;;;;;14.21;57.54;100299.03;5057726;28;8880;-63
2022/05/10 00:53:26;;;;;;;;;14.00;11.50;;;;;14.18;57.49;100307.34;5057947;28;8842;-64
2022/05/10 00:55:54;;;;;;;;;15.00;13.00;;;;;14.16;57.79;100303.91;5057414;28;8927;-62
2022/05/10 00:58:24;;;;;;;;;16.50;12.75;;;;;14.16;58.13;100304.78;5054745;28;8839;-63
2022/05/10 01:00:52;;;;;;;;;9.50;9.50;;;;;14.20;57.48;100305.38;5037905;28;9034;-62
2022/05/10 01:03:22;;;;;;;;;15.00;15.00;;;;;14.22;57.70;100303.41;5036725;28;8870;-63
2022/05/10 01:05:50;;;;;;;;;12.00;12.00;;;;;14.19;57.92;100293.81;5036883;28;8927;-63
2022/05/10 01:08:18;;;;;;;;;13.00;12.00;;;;;14.18;57.59;100302.00;5037782;28;8888;-62
2022/05/10 01:10:46;;;;;;;;;9.25;9.00;;;;;14.14;57.56;100293.34;5037600;28;8844;-63
2022/05/10 01:13:14;;;;;;;;;11.25;10.00;;;;;14.13;57.80;100294.31;5037413;28;8968;-63
2022/05/10 01:15:42;;;;;;;;;14.00;12.50;;;;;14.11;57.83;100284.75;5036736;28;8850;-62
2022/05/10 01:18:13;;;;;;;;;7.50;5.50;;;;;14.10;57.95;100285.69;5036363;28;8851;-63
2022/05/10 01:20:41;;;;;;;;;14.00;12.50;;;;;14.06;57.96;100292.31;5037328;28;8861;-63
2022/05/10 01:23:08;;;;;;;;;9.75;8.50;;;;;14.03;58.10;100290.75;5037330;28;8844;-62
2022/05/10 01:25:36;;;;;;;;;14.00;12.50;;;;;14.02;57.79;100293.56;5037008;28;8825;-63
2022/05/10 01:28:04;;;;;;;;;11.00;9.50;;;;;13.99;57.78;100292.03;5036244;28;8999;-63
2022/05/10 01:30:32;;;;;;;;;13.50;12.25;;;;;13.99;58.13;100288.50;5052811;28;8857;-63
2022/05/10 01:35:45;;;;;;;;;12.75;12.00;;;;;13.96;58.22;100291.44;5056558;28;9791;-63
2022/05/10 01:38:12;;;;;;;;;13.75;12.00;;;;;13.93;58.14;100284.53;5057216;28;8834;-63
2022/05/10 01:40:40;;;;;;;;;10.50;9.75;;;;;13.89;58.32;100285.78;5056750;28;9629;-63
2022/05/10 01:43:08;;;;;;;;;12.50;11.50;;;;;13.87;58.18;100278.84;5057089;28;8919;-64
2022/05/10 01:45:36;;;;;;;;;15.50;15.50;;;;;13.86;57.83;100285.19;5056535;28;8858;-63
2022/05/10 01:48:04;;;;;;;;;12.75;12.25;;;;;13.87;58.13;100284.19;5055852;28;8868;-63
2022/05/10 01:50:31;;;;;;;;;12.75;11.50;;;;;13.96;58.43;100276.22;5055020;28;8862;-63
2022/05/10 01:53:01;;;;;;;;;9.75;9.25;;;;;14.12;57.45;100275.72;5056153;28;8849;-64
2022/05/10 01:55:28;;;;;;;;;11.00;11.00;;;;;14.24;57.19;100264.78;5055262;28;8884;-64
2022/05/10 01:57:56;;;;;;;;;12.00;12.00;;;;;14.39;56.95;100262.56;5055615;28;8838;-63
2022/05/10 02:00:24;;;;;;;;;14.75;13.75;;;;;14.46;56.85;100263.69;5053662;28;8846;-63
2022/05/10 02:02:51;;;;;;;;;16.00;15.00;;;;;14.45;56.97;100264.69;5056101;28;9570;-63
2022/05/10 02:05:19;;;;;;;;;15.00;14.50;;;;;14.41;57.15;100257.94;5056262;28;9525;-63
2022/05/10 02:07:47;;;;;;;;;15.75;15.25;;;;;14.37;57.06;100252.00;5056805;28;8830;-63
2022/05/10 02:10:15;;;;;;;;;15.00;13.00;;;;;14.35;57.05;100253.13;5056423;28;8823;-64
2022/05/10 02:12:43;;;;;;;;;15.25;14.00;;;;;14.30;57.82;100250.00;5056316;28;8856;-63
2022/05/10 02:15:11;;;;;;;;;12.75;12.75;;;;;14.23;57.69;100252.38;5056074;28;8846;-67
2022/05/10 02:17:38;;;;;;;;;13.00;12.00;;;;;14.18;57.81;100243.06;5056467;28;8846;-63
2022/05/10 02:20:06;;;;;;;;;16.00;15.25;;;;;14.13;57.72;100250.63;5056173;28;9621;-64
2022/05/10 02:22:35;;;;;;;;;17.75;15.50;;;;;14.10;57.87;100256.25;5055791;28;8834;-64
2022/05/10 02:25:03;;;;;;;;;14.00;11.00;;;;;14.09;57.82;100246.50;5055902;28;8838;-63
2022/05/10 02:27:32;;;;;;;;;14.50;12.50;;;;;14.13;58.07;100250.63;5055872;28;8842;-63
2022/05/10 02:30:00;;;;;;;;;14.50;12.50;;;;;14.11;57.45;100249.94;5037771;28;8812;-62
2022/05/10 02:35:15;;;;;;;;;7.00;6.75;;;;;14.04;58.33;100256.81;5035511;28;8874;-63
2022/05/10 02:37:44;;;;;;;;;15.75;15.00;;;;;13.99;58.12;100253.69;5035832;28;8832;-63
2022/05/10 02:40:11;;;;;;;;;11.75;10.75;;;;;13.94;58.12;100250.56;5035490;28;8872;-63
2022/05/10 02:42:39;;;;;;;;;10.25;8.00;;;;;13.89;58.25;100250.13;5035390;28;8840;-63
2022/05/10 02:45:07;;;;;;;;;9.50;9.50;;;;;13.86;58.33;100245.88;5034632;28;8855;-63
2022/05/10 02:47:35;;;;;;;;;15.25;12.00;;;;;13.89;58.49;100247.47;5034529;28;8840;-63
2022/05/10 02:50:03;;;;;;;;;15.25;15.00;;;;;13.98;58.08;100241.28;5034146;28;8878;-62
2022/05/10 02:52:31;;;;;;;;;15.25;13.00;;;;;13.99;58.01;100251.00;5034429;28;8856;-63
2022/05/10 02:55:04;;;;;;;;;10.25;9.50;;;;;13.96;57.88;100253.97;5033967;28;8824;-63
2022/05/10 02:57:32;;;;;;;;;16.75;15.50;;;;;13.90;58.42;100249.16;5033868;28;8866;-62
2022/05/10 03:00:01;;;;;;;;;14.00;14.00;;;;;13.83;58.35;100250.66;5050547;28;9492;-63
2022/05/10 03:02:29;;;;;;;;;13.00;12.00;;;;;13.77;58.48;100243.16;5052913;28;8826;-63
2022/05/10 03:04:57;;;;;;;;;15.75;13.00;;;;;13.73;58.83;100247.13;5053918;28;8845;-62
2022/05/10 03:07:25;;;;;;;;;15.25;13.00;;;;;13.70;59.09;100242.00;5053913;28;8838;-63
2022/05/10 03:09:53;;;;;;;;;15.25;14.25;;;;;13.66;58.79;100237.94;5053833;28;8842;-62
2022/05/10 03:12:20;;;;;;;;;20.00;19.00;;;;;13.63;59.25;100236.34;5054170;28;8939;-63
2022/05/10 03:14:48;;;;;;;;;7.00;7.00;;;;;13.61;59.11;100232.13;5054057;28;8854;-63
2022/05/10 03:17:16;;;;;;;;;18.00;16.00;;;;;13.58;59.27;100233.22;5054168;28;8962;-62
2022/05/10 03:19:45;;;;;;;;;13.00;12.25;;;;;13.57;59.05;100228.84;5055384;28;9658;-63
2022/05/10 03:22:12;;;;;;;;;19.00;15.75;;;;;13.55;59.13;100222.81;5051426;28;8864;-62
2022/05/10 03:24:40;;;;;;;;;16.00;15.00;;;;;13.54;58.85;100220.25;5035576;28;8839;-63
2022/05/10 03:27:08;;;;;;;;;12.25;10.50;;;;;13.54;58.99;100217.56;5035608;28;8828;-63
2022/05/10 03:29:36;;;;;;;;;14.00;12.75;;;;;13.55;59.03;100211.25;5033183;28;8898;-62
2022/05/10 03:32:03;;;;;;;;;12.25;11.75;;;;;13.59;59.24;100218.03;5033551;28;8866;-63
2022/05/10 03:37:17;;;;;;;;;15.75;15.00;;;;;13.61;59.24;100216.91;5033673;28;9554;-63
2022/05/10 03:39:44;;;;;;;;;16.00;15.75;;;;;13.59;58.99;100218.03;5034826;28;8978;-63
2022/05/10 03:42:17;;;;;;;;;14.25;14.00;;;;;13.57;59.38;100217.28;5035242;28;8843;-63
2022/05/10 03:44:45;;;;;;;;;16.50;15.00;;;;;13.54;59.23;100212.22;5034601;28;8848;-64
2022/05/10 03:47:14;;;;;;;;;15.00;13.75;;;;;13.50;59.24;100214.31;5033126;28;8844;-63
2022/05/10 03:49:42;;;;;;;;;11.50;11.50;;;;;13.48;59.65;100220.78;5033914;28;8981;-62
2022/05/10 03:52:10;;;;;;;;;13.50;12.25;;;;;13.45;59.77;100213.84;5037858;28;8877;-63
2022/05/10 03:54:37;;;;;;;;;17.00;16.00;;;;;13.43;59.18;100217.69;5054944;28;8945;-62
2022/05/10 03:57:05;;;;;;;;;15.00;13.50;;;;;13.43;59.24;100218.50;5055510;28;8839;-62
2022/05/10 03:59:33;;;;;;;;;11.00;9.25;;;;;13.43;59.22;100223.03;5054698;28;8837;-62
2022/05/10 04:02:01;;;;;;;;;10.50;10.25;;;;;13.42;59.45;100221.31;5054817;28;8846;-62
2022/05/10 04:04:30;;;;;;;;;9.50;9.00;;;;;13.41;59.42;100224.97;5054926;28;8868;-62
2022/05/10 04:06:57;;;;;;;;;15.50;15.00;;;;;13.41;59.40;100217.81;5055176;28;8959;-62
2022/05/10 04:09:25;;;;;;;;;15.00;13.00;;;;;13.43;59.65;100217.69;5054862;28;8838;-62
2022/05/10 04:11:53;;;;;;;;;16.00;15.00;;;;;13.47;59.63;100213.75;5054285;28;8830;-62
2022/05/10 04:14:21;;;;;;;;;12.00;11.50;;;;;13.49;59.65;100206.41;5058242;28;8853;-62
2022/05/10 04:16:48;;;;;;;;;18.25;17.00;;;;;13.52;59.51;100212.34;5058585;28;8858;-64
2022/05/10 04:19:16;;;;;;;;;10.50;10.50;;;;;13.55;59.13;100208.56;5057990;28;8830;-63
2022/05/10 04:21:44;;;;;;;;;7.50;7.50;;;;;13.57;59.40;100203.91;5058353;28;8859;-63
2022/05/10 04:24:12;;;;;;;;;15.75;14.50;;;;;13.61;59.02;100210.72;5057542;28;8827;-64
2022/05/10 04:26:39;;;;;;;;;15.00;14.25;;;;;13.65;58.92;100209.44;5058068;28;8876;-63
2022/05/10 04:29:08;;;;;;;;;16.00;14.50;;;;;13.69;58.88;100201.03;5057808;28;8834;-63
2022/05/10 04:31:35;;;;;;;;;14.75;13.75;;;;;13.74;59.05;100205.97;5057581;28;8850;-64
2022/05/10 04:34:03;;;;;;;;;9.00;8.00;;;;;13.78;59.08;100207.38;5057160;28;8838;-63
2022/05/10 04:36:31;;;;;;;;;15.50;14.25;;;;;13.81;58.83;100202.59;5057123;28;8834;-63
2022/05/10 04:38:59;;;;;;;;;17.00;15.75;;;;;13.87;58.61;100202.06;5056995;28;8858;-63
2022/05/10 04:41:25;;;;;;;;;19.00;16.00;;;;;13.93;58.74;100196.19;5056529;28;8826;-64
2022/05/10 04:43:53;;;;;;;;;13.50;13.50;;;;;13.98;58.84;100198.44;5056659;28;8944;-64
2022/05/10 04:46:21;;;;;;;;;15.00;12.75;;;;;14.05;58.17;100204.94;5057118;28;8838;-64
2022/05/10 04:48:49;;;;;;;;;12.75;12.00;;;;;14.09;58.01;100206.34;5057537;28;8941;-63
2022/05/10 04:51:17;;;;;;;;;15.25;15.00;;;;;14.14;57.94;100199.63;5057755;28;8867;-64
2022/05/10 04:53:44;;;;;;;;;7.00;7.00;;;;;14.20;58.11;100203.59;5041505;28;8867;-64
2022/05/10 04:56:12;;;;;;;;;13.50;12.50;;;;;14.26;58.34;100211.09;5036639;28;8832;-63
2022/05/10 04:58:40;;;;;;;;;16.25;14.25;;;;;14.30;57.96;100208.00;5036293;28;8890;-65
2022/05/10 05:01:08;;;;;;;;;18.00;17.00;;;;;14.39;57.96;100208.97;5036362;28;8828;-64
2022/05/10 05:03:36;;;;;;;;;13.50;13.50;;;;;14.45;57.61;100200.38;5035863;28;8850;-64
2022/05/10 05:06:03;;;;;;;;;12.50;10.00;;;;;14.51;57.34;100205.19;5036258;28;8878;-64
2022/05/10 05:08:31;;;;;;;;;15.50;12.50;;;;;14.57;57.78;100201.94;5036042;28;8840;-64
2022/05/10 05:10:59;;;;;;;;;12.50;12.00;;;;;14.62;57.24;100205.88;5036293;28;8938;-63
2022/05/10 05:13:27;;;;;;;;;16.75;13.50;;;;;14.70;57.30;100207.84;5036042;28;8866;-64
2022/05/10 05:15:54;;;;;;;;;16.00;15.50;;;;;14.77;57.61;100211.66;5036904;28;8859;-63
2022/05/10 05:18:23;;;;;;;;;18.00;15.50;;;;;14.83;57.15;100216.44;5036885;28;8828;-64
2022/05/10 05:20:50;;;;;;;;;14.00;13.00;;;;;14.90;57.03;100214.91;5037529;28;8887;-64
2022/05/10 05:23:18;;;;;;;;;16.75;15.75;;;;;14.94;57.25;100208.28;5050275;28;9537;-64
2022/05/10 05:25:46;;;;;;;;;14.50;12.50;;;;;14.99;56.99;100208.66;5054810;28;8854;-64
2022/05/10 05:28:15;;;;;;;;;18.00;15.00;;;;;15.05;57.18;100210.78;5056266;28;8849;-64
2022/05/10 05:30:42;;;;;;;;;16.50;16.00;;;;;15.12;56.60;100212.75;5055801;28;8853;-63
2022/05/10 05:33:10;;;;;;;;;12.75;12.75;;;;;15.19;57.19;100213.88;5054780;28;8854;-64
2022/05/10 05:35:37;;;;;;;;;15.50;15.00;;;;;15.24;56.80;100214.28;5053881;28;8833;-67
2022/05/10 05:38:06;;;;;;;;;16.50;15.50;;;;;15.34;56.54;100219.66;5054863;28;8834;-64
2022/05/10 05:40:33;;;;;;;;;13.00;12.50;;;;;15.41;56.93;100220.78;5054250;28;8856;-64
2022/05/10 05:43:01;;;;;;;;;13.00;12.50;;;;;15.48;56.36;100217.34;5054195;28;9500;-64
2022/05/10 05:45:28;;;;;;;;;11.00;10.00;;;;;15.58;56.43;100211.94;5053895;28;8840;-65
2022/05/10 05:47:57;;;;;;;;;15.00;14.50;;;;;15.67;56.63;100217.28;5055209;28;8857;-63
2022/05/10 05:50:24;;;;;;;;;15.00;14.00;;;;;15.76;55.86;100211.03;5054699;28;8868;-64
2022/05/10 05:52:56;;;;;;;;;15.00;13.50;;;;;15.85;55.49;100210.13;5042926;28;8832;-64
2022/05/10 05:55:24;;;;;;;;;13.50;13.50;;;;;15.95;55.62;100216.31;5034348;28;8832;-64
2022/05/10 05:57:52;;;;;;;;;12.50;11.50;;;;;16.04;55.67;100206.50;5034163;28;8844;-64
2022/05/10 06:00:19;;;;;;;;;18.50;16.50;;;;;16.16;55.71;100213.38;5033775;28;8844;-65
2022/05/10 06:02:47;;;;;;;;;10.00;9.50;;;;;16.29;55.57;100215.53;5032567;28;8979;-63
2022/05/10 06:05:15;;;;;;;;;18.25;17.50;;;;;16.44;55.12;100214.06;5033619;28;9725;-64
2022/05/10 06:07:43;;;;;;;;;16.00;15.50;;;;;16.58;54.62;100205.47;5041299;28;8941;-68
2022/05/10 06:10:10;;;;;;;;;16.00;15.25;;;;;16.75;54.62;100203.75;5054243;28;8879;-64
2022/05/10 06:12:39;;;;;;;;;16.50;16.25;;;;;16.92;54.34;100205.56;5053071;28;8846;-64
2022/05/10 06:15:09;;;;;;;;;21.00;18.75;;;;;17.08;54.06;100203.03;5053174;28;8858;-64
2022/05/10 06:17:37;;;;;;;;;21.25;18.25;;;;;17.24;54.02;100198.59;5054356;28;8806;-64
2022/05/10 06:20:06;;;;;;;;;20.75;18.00;;;;;17.37;53.91;100199.06;5053991;28;8834;-63
2022/05/10 06:22:35;;;;;;;;;16.50;16.00;;;;;17.48;53.86;100200.63;5053971;28;9646;-64
2022/05/10 06:25:02;;;;;;;;;17.50;15.75;;;;;17.56;53.67;100192.59;5041647;28;9555;-64
2022/05/10 06:27:31;;;;;;;;;18.00;18.00;;;;;17.62;53.61;100192.78;5043182;28;8850;-64
2022/05/10 06:30:00;;;;;;;;;14.00;13.00;;;;;17.67;53.75;100190.47;5053128;28;8838;-64
2022/05/10 06:32:27;;;;;;;;;19.50;18.00;;;;;17.76;53.30;100188.69;5051508;28;8858;-63
2022/05/10 06:34:58;;;;;;;;;15.50;14.00;;;;;17.89;53.47;100189.91;5033550;28;9494;-64
2022/05/10 06:40:11;;;;;;;;;16.25;16.25;;;;;18.25;52.70;100191.38;5032891;28;8902;-64
2022/05/10 06:42:39;;;;;;;;;21.75;21.00;;;;;18.42;52.62;100186.88;5033946;28;8875;-64
2022/05/10 06:45:09;;;;;;;;;15.00;15.00;;;;;18.56;52.22;100187.09;5033133;28;8855;-64
2022/05/10 06:47:38;;;;;;;;;24.75;19.25;;;;;18.72;52.02;100181.72;5033958;28;8863;-63
2022/05/10 06:50:05;;;;;;;;;15.00;15.00;;;;;18.91;52.13;100183.22;5032290;28;8870;-63
2022/05/10 06:52:34;;;;;;;;;16.25;15.00;;;;;19.12;51.83;100160.09;5032883;28;8871;-63
2022/05/10 06:55:02;;;;;;;;;17.00;17.00;;;;;19.35;51.60;100161.09;5032968;28;8963;-64
2022/05/10 06:57:30;;;;;;;;;16.75;13.00;;;;;19.62;51.09;100166.09;5032497;28;8975;-64
2022/05/10 06:59:59;;;;;;;;;15.20;14.80;;;;;19.88;50.83;100158.53;5039517;28;8837;-63
2022/05/10 07:02:27;;;;;;;;;18.80;17.00;;;;;20.14;50.59;100159.13;5042999;28;8868;-64
2022/05/10 07:04:55;;;;;;;;;10.80;10.40;;;;;20.36;50.15;100152.91;5052935;28;8850;-64
2022/05/10 07:07:23;;;;;;;;;19.60;18.80;;;;;20.54;50.31;100150.75;5052335;28;8838;-63
2022/05/10 07:09:52;;;;;;;;;16.20;14.20;;;;;20.69;49.75;100146.22;5052252;28;8850;-64
2022/05/10 07:12:20;;;;;;;;;17.00;15.20;;;;;20.84;49.62;100145.28;5053021;28;8850;-63
2022/05/10 07:14:48;;;;;;;;;13.20;12.60;;;;;20.97;49.57;100141.97;5053412;28;8826;-64
2022/05/10 07:17:16;;;;;;;;;12.80;12.80;;;;;21.09;49.59;100141.34;5052895;28;8838;-64
2022/05/10 07:19:44;;;;;;;;;15.00;14.40;;;;;21.17;49.52;100134.97;5040478;28;8830;-64
2022/05/10 07:22:11;;;;;;;;;14.20;13.20;;;;;21.26;49.37;100139.31;5046978;28;8842;-64
2022/05/10 07:24:39;;;;;;;;;12.80;11.80;;;;;21.35;49.25;100139.03;5053075;28;8861;-64
2022/05/10 07:27:07;;;;;;;;;16.60;15.40;;;;;21.45;49.16;100139.59;5051075;28;8923;-64
2022/05/10 07:29:35;;;;;;;;;17.40;16.00;;;;;21.56;49.07;100138.31;5052326;28;8853;-64
2022/05/10 07:32:02;;;;;;;;;13.80;13.80;;;;;21.64;49.00;100136.31;5052295;28;8850;-64
2022/05/10 07:34:30;;;;;;;;;13.80;13.00;;;;;21.72;49.54;100133.53;5051922;28;9000;-64
2022/05/10 07:36:58;;;;;;;;;15.20;14.20;;;;;21.80;49.28;100135.31;5051307;28;8856;-64
2022/05/10 07:39:26;;;;;;;;;13.80;13.40;;;;;21.88;49.13;100137.94;5051712;28;8845;-64
2022/05/10 07:41:54;;;;;;;;;16.40;16.40;;;;;21.94;48.67;100142.59;5052211;28;8924;-64
2022/05/10 07:44:22;;;;;;;;;18.20;16.60;;;;;21.99;48.93;100140.16;5046076;28;9519;-64
2022/05/10 07:46:50;;;;;;;;;16.60;15.40;;;;;22.03;48.66;100138.75;5052109;28;8927;-64
2022/05/10 07:49:18;;;;;;;;;15.40;12.00;;;;;22.06;48.73;100124.78;5055477;28;8884;-64
2022/05/10 07:51:46;;;;;;;;;12.20;12.00;;;;;22.14;49.05;100130.09;5041471;28;8864;-64
2022/05/10 07:54:14;;;;;;;;;11.40;11.00;;;;;22.21;48.59;100128.31;5036069;28;8860;-64
2022/05/10 07:56:42;;;;;;;;;12.40;12.00;;;;;22.26;49.23;100131.28;5035668;28;8862;-64
2022/05/10 07:59:10;;;;;;;;;16.00;14.60;;;;;22.32;48.70;100125.09;5034933;28;8848;-68
2022/05/10 08:01:38;;;;;;;;;15.40;15.00;;;;;22.38;48.94;100121.63;5035353;28;8982;-65
2022/05/10 08:04:05;;;;;;;;;16.40;16.40;;;;;22.42;48.17;100114.78;5035597;28;8853;-64
2022/05/10 08:06:33;;;;;;;;;15.40;15.00;;;;;22.50;48.59;100122.81;5035867;28;8868;-64
2022/05/10 08:09:01;;;;;;;;;15.00;14.00;;;;;22.58;48.07;100119.97;5035672;28;8848;-64
2022/05/10 08:11:29;;;;;;;;;14.00;13.20;;;;;22.69;47.88;100112.13;5042263;28;8826;-64
2022/05/10 08:14:02;;;;;;;;;16.20;16.00;;;;;22.83;48.26;100113.94;5055513;28;8850;-64
2022/05/10 08:16:32;;;;;;;;;17.60;14.60;;;;;22.97;47.55;100104.00;5056685;28;8972;-64
2022/05/10 08:18:59;;;;;;;;;16.40;16.00;;;;;23.12;47.19;100100.16;5056132;28;8846;-64
2022/05/10 08:21:27;;;;;;;;;16.20;15.60;;;;;23.24;47.64;100101.34;5056312;28;9007;-64
2022/05/10 08:23:55;;;;;;;;;15.60;14.40;;;;;23.41;47.31;100096.41;5055944;28;8923;-64
2022/05/10 08:26:23;;;;;;;;;14.00;13.60;;;;;23.58;47.16;100097.78;5055281;28;8854;-64
2022/05/10 08:28:51;;;;;;;;;14.00;13.00;;;;;23.76;46.79;100095.34;5049596;28;9517;-65
2022/05/10 08:31:24;;;;;;;;;12.80;12.80;;;;;23.85;46.29;100103.16;5036450;28;8959;-64
2022/05/10 08:33:52;;;;;;;;;7.60;7.40;;;;;23.88;46.53;100099.19;5036623;28;8847;-63
2022/05/10 08:36:20;;;;;;;;;14.20;12.80;;;;;23.94;46.29;100104.66;5036004;28;8906;-64
2022/05/10 08:38:48;;;;;;;;;12.60;11.60;;;;;23.97;46.03;100098.81;5036485;28;8844;-64
2022/05/10 08:41:16;;;;;;;;;9.20;8.60;;;;;24.03;45.96;100098.00;5036370;28;8852;-64
2022/05/10 08:43:43;;;;;;;;;14.20;12.60;;;;;24.14;46.06;100102.00;5036880;28;9010;-65
2022/05/10 08:46:11;;;;;;;;;14.80;14.40;;;;;24.32;46.02;100097.66;5036242;28;8938;-65
2022/05/10 08:48:39;;;;;;;;;15.00;14.60;;;;;24.55;45.40;100081.81;5035467;28;8860;-64
2022/05/10 08:51:07;;;;;;;;;19.00;14.80;;;;;24.88;45.03;100074.47;5036095;28;8950;-64
2022/05/10 08:53:35;;;;;;;;;14.00;13.00;;;;;25.16;44.26;100079.69;5035474;28;9003;-65
2022/05/10 08:56:04;;;;;;;;;15.00;14.00;;;;;25.25;43.92;100083.94;5035846;28;8860;-64
2022/05/10 08:58:32;;;;;;;;;13.00;11.80;;;;;25.29;43.67;100079.72;5037898;28;8838;-65
2022/05/10 09:01:20;;;;;;;;;15.20;13.00;;;;;25.31;43.66;100078.44;5055729;28;8854;-64
2022/05/10 09:03:50;;;;;;;;;12.60;12.00;;;;;25.31;44.20;100083.06;5056672;28;8838;-64
2022/05/10 09:06:18;;;;;;;;;16.80;15.80;;;;;25.21;44.06;100069.00;5056633;28;8834;-64
2022/05/10 09:08:46;;;;;;;;;15.60;14.40;;;;;25.10;43.64;100080.56;5056586;28;8849;-64
2022/05/10 09:11:13;;;;;;;;;15.00;14.20;;;;;25.05;44.25;100077.63;5056420;28;8862;-64
2022/05/10 09:13:41;;;;;;;;;8.40;6.20;;;;;24.99;43.66;100073.00;5056792;28;8860;-64
2022/05/10 09:16:09;;;;;;;;;12.60;12.00;;;;;24.94;43.87;100070.91;5055005;28;8838;-65
2022/05/10 09:18:37;;;;;;;;;12.60;11.40;;;;;24.90;44.03;100071.56;5054483;28;8860;-64
2022/05/10 09:21:05;;;;;;;;;11.00;11.00;;;;;24.91;43.90;100065.91;5054692;28;8854;-65
2022/05/10 09:23:33;;;;;;;;;11.60;11.20;;;;;25.02;44.14;100069.88;5055160;28;8923;-64
2022/05/10 09:26:01;;;;;;;;;14.40;13.20;;;;;25.18;43.48;100055.81;5055283;28;8981;-65
2022/05/10 09:28:29;;;;;;;;;11.60;11.00;;;;;25.38;42.86;100056.59;5053364;28;8834;-64
2022/05/10 09:36:27;;;;;;;;;16.00;15.00;;;;;25.87;41.90;100058.53;5037784;28;8848;-63
2022/05/10 09:38:55;;;;;;;;;12.80;11.80;;;;;26.03;41.14;100055.31;5034411;28;8978;-63
2022/05/10 09:41:23;;;;;;;;;12.80;12.40;;;;;26.28;40.28;100049.94;5033989;28;8832;-64
2022/05/10 09:43:51;;;;;;;;;11.80;10.80;;;;;26.60;40.19;100044.28;5034122;28;8921;-63
2022/05/10 09:46:19;;;;;;;;;14.20;13.20;;;;;26.96;39.69;100030.72;5035017;28;8847;-63
2022/05/10 09:48:47;;;;;;;;;12.80;12.00;;;;;27.09;39.38;100033.28;5035562;28;8848;-63
2022/05/10 09:51:15;;;;;;;;;13.40;10.80;;;;;27.08;39.02;100031.63;5034890;28;9647;-63
2022/05/10 09:53:43;;;;;;;;;12.40;11.20;;;;;27.22;39.35;100041.41;5033720;28;8858;-63
2022/05/10 09:56:11;;;;;;;;;18.40;17.00;;;;;27.24;39.19;100031.06;5034424;28;8840;-62
2022/05/10 09:58:38;;;;;;;;;13.60;12.80;;;;;27.12;39.01;100029.28;5034200;28;8870;-64
2022/05/10 10:01:06;;;;;;;;;12.40;12.40;;;;;27.11;38.87;100031.19;5034252;28;8856;-64
2022/05/10 10:03:34;;;;;;;;;11.80;11.00;;;;;27.15;38.97;100026.09;5033428;28;8843;-63
2022/05/10 10:06:03;;;;;;;;;12.00;12.00;;;;;27.21;38.36;100028.78;5044345;28;8964;-63
2022/05/10 10:08:31;;;;;;;;;13.80;13.00;;;;;27.09;39.00;100025.09;5052307;28;8834;-63
2022/05/10 10:10:58;;;;;;;;;14.40;13.60;;;;;27.13;38.14;100014.53;5034518;28;8852;-63
2022/05/10 10:13:26;;;;;;;;;14.80;14.00;;;;;27.32;37.61;100017.06;5033124;28;8866;-62
2022/05/10 10:15:54;;;;;;;;;14.20;14.20;;;;;27.37;38.30;100022.72;5034049;28;8825;-68
2022/05/10 10:18:22;;;;;;;;;16.80;16.00;;;;;27.27;38.37;100025.16;5034219;28;8840;-64
2022/05/10 10:20:50;;;;;;;;;12.80;12.00;;;;;27.17;38.52;100024.00;5033350;28;8864;-64
2022/05/10 10:23:17;;;;;;;;;14.20;13.80;;;;;27.20;37.81;100024.38;5033379;28;8967;-63
2022/05/10 10:25:46;;;;;;;;;14.00;14.00;;;;;27.47;37.74;100012.06;5032762;28;8870;-63
2022/05/10 10:28:14;;;;;;;;;17.20;17.20;;;;;27.99;36.57;100013.31;5032963;28;8878;-63
2022/05/10 10:30:42;;;;;;;;;10.00;8.80;;;;;28.11;36.69;100016.94;5031864;28;8870;-63
2022/05/10 10:33:10;;;;;;;;;14.20;14.20;;;;;27.94;36.82;100005.81;5032997;28;8855;-64
2022/05/10 10:35:38;;;;;;;;;14.80;14.00;;;;;27.77;37.28;100018.44;5033756;28;8978;-63
2022/05/10 10:38:06;;;;;;;;;15.00;14.20;;;;;28.04;36.56;100007.97;5033232;28;8856;-63
2022/05/10 10:40:36;;;;;;;;;14.00;13.60;;;;;28.66;36.06;100004.72;5043845;28;8892;-64
2022/05/10 10:43:04;;;;;;;;;14.80;13.80;;;;;28.96;35.71;100003.56;5051514;28;8831;-63
2022/05/10 10:45:32;;;;;;;;;11.80;11.80;;;;;29.03;35.37;99996.03;5052259;28;8858;-63
2022/05/10 10:48:00;;;;;;;;;16.60;14.60;;;;;29.18;35.19;99985.41;5052066;28;8850;-63
2022/05/10 10:50:28;;;;;;;;;14.00;12.80;;;;;29.13;35.37;100000.94;5051906;28;8878;-64
2022/05/10 10:52:56;;;;;;;;;11.60;11.40;;;;;29.28;35.32;99991.09;5051483;28;8961;-64
2022/05/10 10:55:23;;;;;;;;;15.00;14.20;;;;;29.57;34.78;99992.88;5051452;28;8843;-63
2022/05/10 10:57:51;;;;;;;;;11.00;10.20;;;;;29.45;34.95;99993.94;5052318;28;8951;-63
2022/05/10 11:00:19;;;;;;;;;12.00;12.00;;;;;28.99;35.50;99991.28;5052254;28;8849;-65
2022/05/10 11:02:47;;;;;;;;;15.00;14.60;;;;;28.55;36.59;99987.19;5050553;28;8842;-64
2022/05/10 11:05:15;;;;;;;;;13.60;13.60;;;;;28.31;36.74;99982.66;5051502;28;8845;-63
2022/05/10 11:07:43;;;;;;;;;10.40;10.00;;;;;28.30;36.66;99975.53;5051233;28;8860;-63
2022/05/10 11:10:11;;;;;;;;;12.00;11.60;;;;;28.47;36.61;99978.44;5050080;28;9047;-63
2022/05/10 11:12:39;;;;;;;;;11.40;9.20;;;;;28.67;36.25;99974.28;5052447;28;8888;-63
2022/05/10 11:15:06;;;;;;;;;11.80;11.60;;;;;28.79;35.82;99977.03;5050580;28;8917;-64
2022/05/10 11:17:34;;;;;;;;;11.20;10.20;;;;;28.54;35.76;99971.81;5032253;28;8874;-64
2022/05/10 11:20:02;;;;;;;;;10.20;10.20;;;;;28.15;36.70;99968.84;5033239;28;8898;-62
2022/05/10 11:22:31;;;;;;;;;13.20;12.20;;;;;27.92;36.53;99950.41;5033885;28;8876;-64
2022/05/10 11:24:59;;;;;;;;;14.20;13.40;;;;;27.70;36.92;99956.63;5038258;28;8833;-64
2022/05/10 11:27:28;;;;;;;;;12.40;10.00;;;;;27.45;37.24;99961.34;5037211;28;8834;-63
2022/05/10 11:29:56;;;;;;;;;14.40;13.60;;;;;27.23;37.72;99952.78;5036793;28;8864;-63
2022/05/10 11:32:23;;;;;;;;;13.40;13.00;;;;;27.14;37.65;99945.13;5036337;28;8840;-64
2022/05/10 11:34:51;;;;;;;;;10.40;9.20;;;;;27.09;38.01;99939.47;5036370;28;8848;-63
2022/05/10 11:37:19;;;;;;;;;16.00;14.00;;;;;27.10;37.42;99936.50;5037039;28;8999;-63
2022/05/10 11:39:47;;;;;;;;;15.00;14.40;;;;;27.07;37.42;99930.66;5036395;28;8870;-64